Terminal Aerodrome Forecast
Issued by NWS

Home | Current Version | Previous Version | Text Only | Print | Product List | Glossary Off
Versions: 1 2 3 4 5 6 7 8 9 10 11 12 13 14 15

000
FTUS43 KICT 191100
TAFSLN
TAF
KSLN 191122Z 1912/2012 17008KT 6SM BR SCT010
     FM191500 19012KT P6SM FEW020
     FM191800 20015G22KT P6SM SKC
     FM200100 18010KT P6SM SCT250=

USA.gov is the U.S. government's official web portal to all federal, state and local government web resources and services.